Time;durP1;ratioP1;P1;durP2;ratioP2;P2;SDS_P1;SDS_P2;PMS_P1;PMS_P2;Temp;Humidity;BMP_temperature;BMP_pressure;BME280_temperature;BME280_humidity;BME280_pressure;Samples;Min_cycle;Max_cycle;Signal;HPM_P1;HPM_P2
2022/10/18 00:01:10;;;;;;;6.37;3.50;;;;;;;8.35;75.99;102826.40;1955611;73;20988;-65
2022/10/18 00:03:39;;;;;;;14.03;5.35;;;;;;;8.29;76.00;102819.82;1967828;73;21580;-64
2022/10/18 00:06:11;;;;;;;11.38;4.83;;;;;;;8.24;76.09;102826.80;1967877;73;21524;-63
2022/10/18 00:08:40;;;;;;;9.65;4.03;;;;;;;8.18;76.18;102826.34;1967840;73;21020;-62
2022/10/18 00:11:09;;;;;;;15.70;5.78;;;;;;;8.14;76.29;102822.40;1967732;73;21051;-61
2022/10/18 00:13:38;;;;;;;14.93;5.67;;;;;;;8.08;76.34;102821.94;1918146;73;21051;-62
2022/10/18 00:16:10;;;;;;;14.28;5.10;;;;;;;8.02;76.48;102824.09;1930618;74;21175;-61
2022/10/18 00:18:39;;;;;;;14.47;5.17;;;;;;;7.98;76.63;102824.92;1932531;73;21493;-60
2022/10/18 00:21:10;;;;;;;13.35;5.55;;;;;;;7.93;76.77;102824.92;1956139;73;21038;-59
2022/10/18 00:23:39;;;;;;;15.95;5.03;;;;;;;7.85;76.93;102823.11;1964239;73;21030;-56
2022/10/18 00:26:11;;;;;;;16.60;5.67;;;;;;;7.78;77.16;102821.31;1965134;73;21092;-63
2022/10/18 00:28:40;;;;;;;24.55;5.42;;;;;;;7.71;77.34;102820.42;1964766;73;21109;-64
2022/10/18 00:31:21;;;;;;;17.57;6.47;;;;;;;7.65;77.49;102822.98;1930995;74;21594;-56
2022/10/18 00:33:52;;;;;;;21.60;6.05;;;;;;;7.60;77.60;102830.84;1946980;72;21084;-62
2022/10/18 00:36:21;;;;;;;21.33;5.92;;;;;;;7.56;77.72;102826.41;1970477;72;20991;-60
2022/10/18 00:38:51;;;;;;;17.75;5.40;;;;;;;7.53;77.89;102825.10;1921104;75;21446;-59
2022/10/18 00:41:22;;;;;;;16.02;5.42;;;;;;;7.49;78.02;102825.95;1889365;76;21422;-59
2022/10/18 00:44:12;;;;;;;22.95;5.75;;;;;;;7.46;78.16;102828.55;1917879;74;21165;-59
2022/10/18 00:46:43;;;;;;;21.93;5.15;;;;;;;7.42;78.17;102826.77;1911479;74;21029;-62
2022/10/18 00:49:20;;;;;;;12.30;5.12;;;;;;;7.35;78.24;102826.70;1879808;76;21031;-57
2022/10/18 00:52:04;;;;;;;14.25;5.45;;;;;;;7.30;78.36;102831.06;1886634;75;21044;-62
2022/10/18 00:54:35;;;;;;;14.38;4.58;;;;;;;7.26;78.41;102834.94;1910013;75;21464;-60
2022/10/18 00:57:05;;;;;;;11.93;4.87;;;;;;;7.21;78.45;102836.22;1912748;75;21056;-63
2022/10/18 00:59:36;;;;;;;11.50;5.12;;;;;;;7.18;78.57;102840.12;1909831;75;21025;-57
2022/10/18 01:02:06;;;;;;;8.95;4.33;;;;;;;7.13;78.67;102836.57;1901430;75;21558;-58
2022/10/18 01:04:36;;;;;;;7.33;4.00;;;;;;;7.10;78.73;102831.30;1901773;75;21128;-59
2022/10/18 01:07:19;;;;;;;9.88;3.80;;;;;;;7.02;78.78;102832.98;1911774;74;21460;-60
2022/10/18 01:10:16;;;;;;;7.75;3.95;;;;;;;7.01;78.90;102828.59;1918774;74;21517;-57
2022/10/18 01:12:50;;;;;;;12.20;4.12;;;;;;;6.95;78.93;102827.70;1862100;75;21691;-61
2022/10/18 01:15:31;;;;;;;8.35;4.97;;;;;;;6.91;79.01;102831.13;1890535;75;21644;-60
2022/10/18 01:18:05;;;;;;;9.38;4.28;;;;;;;6.88;79.04;102821.95;1872894;73;21071;-59
2022/10/18 01:20:56;;;;;;;7.00;3.62;;;;;;;6.85;79.04;102823.22;1842491;75;21216;-57
2022/10/18 01:23:50;;;;;;;11.08;3.95;;;;;;;6.84;79.09;102834.98;1882351;75;21080;-63
2022/10/18 01:26:46;;;;;;;11.65;4.50;;;;;;;6.80;79.13;102835.38;1888203;74;21063;-59
2022/10/18 01:29:36;;;;;;;7.78;3.85;;;;;;;6.76;79.16;102832.29;1896692;73;21148;-58
2022/10/18 01:32:16;;;;;;;7.53;4.08;;;;;;;6.72;79.26;102835.30;1897877;73;21033;-61
2022/10/18 01:34:48;;;;;;;17.92;6.60;;;;;;;6.69;79.30;102834.39;1892035;74;21035;-62
2022/10/18 01:37:19;;;;;;;10.50;4.97;;;;;;;6.65;79.40;102831.30;1879888;76;21470;-63
2022/10/18 01:39:50;;;;;;;11.35;3.83;;;;;;;6.63;79.44;102830.41;1880029;75;21012;-59
2022/10/18 01:42:20;;;;;;;9.48;3.50;;;;;;;6.61;79.51;102830.83;1911572;74;21000;-60
2022/10/18 01:44:51;;;;;;;9.38;3.80;;;;;;;6.60;79.57;102835.60;1930809;72;21015;-64
2022/10/18 01:47:21;;;;;;;6.90;3.58;;;;;;;6.59;79.65;102834.73;1973532;72;21696;-61
2022/10/18 01:49:51;;;;;;;8.98;3.60;;;;;;;6.55;79.71;102835.12;1925381;72;21549;-62
2022/10/18 01:52:20;;;;;;;6.12;3.22;;;;;;;6.53;79.71;102834.23;1937203;72;21561;-62
2022/10/18 01:54:49;;;;;;;11.48;3.40;;;;;;;6.51;79.77;102838.58;1902457;74;21044;-60
2022/10/18 01:57:36;;;;;;;9.95;4.37;;;;;;;6.50;79.82;102839.42;1907624;74;21483;-62
2022/10/18 02:00:13;;;;;;;9.33;3.87;;;;;;;6.48;79.91;102845.52;1901830;74;21624;-58
2022/10/18 02:02:54;;;;;;;6.55;3.47;;;;;;;6.45;79.99;102842.41;1920411;74;21025;-61
2022/10/18 02:05:34;;;;;;;6.97;3.42;;;;;;;6.41;80.05;102844.55;1909750;72;21025;-61
2022/10/18 02:08:29;;;;;;;7.60;4.08;;;;;;;6.37;80.15;102842.77;1906637;72;21018;-59
2022/10/18 02:11:07;;;;;;;11.22;4.10;;;;;;;6.34;80.18;102850.56;1931652;74;21060;-59
2022/10/18 02:13:41;;;;;;;15.72;4.22;;;;;;;6.29;80.19;102855.76;1924510;74;21475;-59
2022/10/18 02:16:16;;;;;;;6.08;3.50;;;;;;;6.28;80.23;102847.88;1899347;75;21102;-59
2022/10/18 02:18:53;;;;;;;12.33;4.03;;;;;;;6.24;80.28;102847.41;1904368;72;21110;-61
2022/10/18 02:21:24;;;;;;;5.97;3.25;;;;;;;6.17;80.37;102851.23;1927006;72;21060;-62
2022/10/18 02:23:54;;;;;;;8.98;4.15;;;;;;;6.12;80.48;102849.00;1923203;74;21004;-61
2022/10/18 02:26:23;;;;;;;7.90;4.37;;;;;;;6.06;80.60;102839.75;1918575;74;21143;-61
2022/10/18 02:28:52;;;;;;;9.78;4.37;;;;;;;6.03;80.71;102837.11;1916345;74;21167;-61
2022/10/18 02:31:26;;;;;;;14.98;4.08;;;;;;;5.99;80.79;102843.14;1915371;74;21499;-61
2022/10/18 02:34:17;;;;;;;11.45;4.30;;;;;;;5.97;80.94;102843.55;1905303;73;21134;-58
2022/10/18 02:37:03;;;;;;;9.50;4.08;;;;;;;5.93;81.00;102851.74;1924994;74;21123;-59
2022/10/18 02:39:37;;;;;;;10.98;4.00;;;;;;;5.92;80.95;102850.00;1926037;74;21040;-60
2022/10/18 02:42:08;;;;;;;14.13;4.42;;;;;;;5.90;80.98;102856.95;1904974;74;21041;-61
2022/10/18 02:44:38;;;;;;;10.80;4.35;;;;;;;5.90;80.96;102854.74;1911110;74;21119;-59
2022/10/18 02:47:09;;;;;;;8.83;3.58;;;;;;;5.87;81.02;102857.34;1926198;74;21527;-61
2022/10/18 02:49:38;;;;;;;12.60;3.75;;;;;;;5.85;81.09;102865.59;1930855;74;21040;-61
2022/10/18 02:52:07;;;;;;;7.70;4.42;;;;;;;5.83;81.10;102869.88;1916182;74;21024;-62
2022/10/18 02:54:35;;;;;;;9.43;3.85;;;;;;;5.79;81.15;102871.17;1936075;74;21181;-56
2022/10/18 02:57:04;;;;;;;8.95;3.70;;;;;;;5.77;81.23;102870.27;1939443;74;21013;-62
2022/10/18 02:59:33;;;;;;;11.88;3.47;;;;;;;5.73;81.27;102868.44;1913594;75;21111;-63
2022/10/18 03:02:02;;;;;;;8.33;3.15;;;;;;;5.72;81.31;102872.37;1925708;74;21022;-62
2022/10/18 03:04:31;;;;;;;11.28;4.17;;;;;;;5.69;81.36;102870.56;1957776;72;21060;-60
2022/10/18 03:07:00;;;;;;;8.40;3.98;;;;;;;5.67;81.40;102876.64;1946608;72;21023;-60
2022/10/18 03:09:29;;;;;;;8.98;3.67;;;;;;;5.64;81.48;102873.52;1933155;74;21122;-58
2022/10/18 03:11:58;;;;;;;13.38;4.05;;;;;;;5.58;81.55;102876.05;1913534;75;21076;-64
2022/10/18 03:14:26;;;;;;;7.08;4.62;;;;;;;5.54;81.63;102876.43;1944207;74;21040;-63
2022/10/18 03:16:55;;;;;;;6.65;3.70;;;;;;;5.51;81.69;102881.59;1913588;75;21118;-63
2022/10/18 03:19:24;;;;;;;17.67;4.42;;;;;;;5.52;81.75;102875.97;1913322;75;21106;-64
2022/10/18 03:21:53;;;;;;;7.70;4.22;;;;;;;5.51;81.72;102872.89;1913524;75;21261;-61
2022/10/18 03:24:22;;;;;;;10.82;4.47;;;;;;;5.51;81.65;102866.36;1913451;73;21072;-60
2022/10/18 03:26:51;;;;;;;13.80;4.40;;;;;;;5.51;81.62;102868.53;1913421;75;21044;-60
2022/10/18 03:29:20;;;;;;;14.05;4.70;;;;;;;5.53;81.61;102865.95;1913454;75;21118;-62
2022/10/18 03:31:49;;;;;;;10.20;4.28;;;;;;;5.57;81.62;102866.44;1933701;74;21483;-61
2022/10/18 03:34:18;;;;;;;12.85;4.85;;;;;;;5.61;81.65;102866.97;1947386;74;21209;-64
2022/10/18 03:36:46;;;;;;;12.73;4.72;;;;;;;5.65;81.64;102866.16;1939382;74;21036;-60
2022/10/18 03:39:15;;;;;;;12.15;4.72;;;;;;;5.70;81.67;102868.82;1947081;74;21134;-60
2022/10/18 03:41:44;;;;;;;16.48;5.42;;;;;;;5.74;81.71;102866.30;1947360;74;21479;-60
2022/10/18 03:44:13;;;;;;;8.80;4.65;;;;;;;5.80;81.70;102868.98;1946574;74;21032;-65
2022/10/18 03:46:42;;;;;;;12.43;4.62;;;;;;;5.89;81.76;102868.69;1938980;74;21020;-71
2022/10/18 03:49:11;;;;;;;10.53;4.92;;;;;;;5.98;81.85;102865.80;1960965;72;21040;-70
2022/10/18 03:51:39;;;;;;;10.78;4.85;;;;;;;6.07;81.91;102862.84;1927567;72;21504;-63
2022/10/18 03:54:08;;;;;;;11.43;4.58;;;;;;;6.16;81.94;102857.34;1913565;74;21027;-63
2022/10/18 03:56:37;;;;;;;9.95;4.28;;;;;;;6.26;81.93;102856.15;1913514;75;21039;-64
2022/10/18 03:59:06;;;;;;;13.80;4.85;;;;;;;6.36;81.79;102852.36;1934617;71;21521;-64
2022/10/18 04:01:34;;;;;;;17.95;4.55;;;;;;;6.47;81.59;102848.54;1956310;71;21112;-65
2022/10/18 04:04:03;;;;;;;15.43;4.83;;;;;;;6.56;81.44;102855.19;1975413;71;21016;-65
2022/10/18 04:06:32;;;;;;;18.27;4.40;;;;;;;6.63;81.34;102851.36;1966041;72;21007;-62
2022/10/18 04:09:01;;;;;;;10.80;4.90;;;;;;;6.70;81.19;102848.81;1992784;72;21051;-61
2022/10/18 04:11:32;;;;;;;15.80;4.67;;;;;;;6.78;81.09;102855.44;1978275;72;21142;-63
2022/10/18 04:14:03;;;;;;;11.03;4.17;;;;;;;6.83;80.93;102857.68;1919359;74;21026;-63
2022/10/18 04:16:31;;;;;;;14.80;4.72;;;;;;;6.87;80.78;102858.59;1913501;75;21153;-62
2022/10/18 04:19:00;;;;;;;9.90;3.70;;;;;;;6.90;80.67;102863.43;1913421;75;21058;-63
2022/10/18 04:21:29;;;;;;;8.33;3.95;;;;;;;6.94;80.55;102868.27;1915800;74;21446;-64
2022/10/18 04:23:57;;;;;;;8.73;4.30;;;;;;;6.96;80.48;102854.31;1913446;74;21019;-62
2022/10/18 04:26:26;;;;;;;8.50;3.00;;;;;;;7.00;80.44;102860.91;1913417;75;21069;-60
2022/10/18 04:28:55;;;;;;;9.13;2.92;;;;;;;7.02;80.34;102864.41;1913521;75;21097;-61
2022/10/18 04:31:24;;;;;;;8.25;4.28;;;;;;;7.05;80.25;102869.69;1916149;73;21027;-64
2022/10/18 04:33:52;;;;;;;13.80;4.60;;;;;;;7.06;80.21;102869.68;1913649;74;21003;-64
2022/10/18 04:36:21;;;;;;;11.55;3.98;;;;;;;7.09;80.15;102879.33;1913679;74;21011;-62
2022/10/18 04:38:50;;;;;;;9.65;3.08;;;;;;;7.10;80.13;102880.66;1913521;74;21007;-65
2022/10/18 04:41:18;;;;;;;6.72;2.75;;;;;;;7.13;80.07;102878.48;1914759;74;21003;-65
2022/10/18 04:43:47;;;;;;;10.05;4.10;;;;;;;7.14;80.04;102875.02;1913628;74;21007;-65
2022/10/18 04:46:19;;;;;;;12.33;4.00;;;;;;;7.16;80.02;102878.53;1913742;75;20984;-65
2022/10/18 04:48:47;;;;;;;11.50;3.42;;;;;;;7.17;79.98;102878.95;1903314;75;21079;-65
2022/10/18 04:51:16;;;;;;;8.25;3.90;;;;;;;7.20;79.94;102882.92;1901935;74;21181;-64
2022/10/18 04:53:45;;;;;;;13.72;4.83;;;;;;;7.25;79.87;102881.64;1900755;75;21545;-63
2022/10/18 04:56:14;;;;;;;9.90;3.65;;;;;;;7.29;79.78;102883.45;1900620;75;21094;-64
2022/10/18 04:58:45;;;;;;;10.23;3.75;;;;;;;7.30;79.73;102886.50;1899837;75;21153;-61
2022/10/18 05:01:17;;;;;;;13.80;4.60;;;;;;;7.32;79.67;102886.98;1901131;74;21114;-64
2022/10/18 05:03:46;;;;;;;8.08;3.77;;;;;;;7.35;79.64;102885.67;1902109;74;21024;-50
2022/10/18 05:06:15;;;;;;;8.50;4.00;;;;;;;7.40;79.64;102894.03;1929661;74;21554;-51
2022/10/18 05:08:44;;;;;;;9.93;2.77;;;;;;;7.42;79.60;102890.98;1926889;74;21581;-51
2022/10/18 05:11:12;;;;;;;15.13;4.30;;;;;;;7.41;79.55;102903.64;1900627;75;21045;-48
2022/10/18 05:13:41;;;;;;;13.13;4.10;;;;;;;7.39;79.59;102896.20;1921220;74;21089;-48
2022/10/18 05:16:10;;;;;;;12.80;4.42;;;;;;;7.38;79.75;102894.42;1933981;74;21053;-50
2022/10/18 05:18:39;;;;;;;14.98;4.20;;;;;;;7.37;79.67;102892.69;1937096;72;21082;-55
2022/10/18 05:21:07;;;;;;;6.85;3.65;;;;;;;7.41;79.61;102893.15;1968521;72;21175;-56
2022/10/18 05:23:36;;;;;;;14.15;4.08;;;;;;;7.42;79.65;102890.98;1965758;73;21085;-53
2022/10/18 05:26:07;;;;;;;12.00;4.78;;;;;;;7.44;79.70;102890.56;1932631;73;21025;-55
2022/10/18 05:28:36;;;;;;;15.08;5.53;;;;;;;7.48;79.63;102893.66;1934019;74;21017;-52
2022/10/18 05:31:07;;;;;;;16.12;5.10;;;;;;;7.55;79.64;102898.09;1933778;74;21171;-52
2022/10/18 05:33:36;;;;;;;20.12;4.62;;;;;;;7.59;79.58;102895.92;1911440;74;21053;-53
2022/10/18 05:36:05;;;;;;;10.72;4.70;;;;;;;7.63;79.55;102892.45;1900775;75;21040;-52
2022/10/18 05:38:33;;;;;;;12.35;4.33;;;;;;;7.71;79.50;102904.34;1900761;75;21041;-51
2022/10/18 05:41:04;;;;;;;14.23;5.37;;;;;;;7.76;79.51;102901.29;1900667;75;21037;-52
2022/10/18 05:43:33;;;;;;;12.78;5.22;;;;;;;7.80;79.50;102904.81;1913985;74;21025;-53
2022/10/18 05:46:03;;;;;;;17.77;5.97;;;;;;;7.83;79.50;102898.29;1908436;74;21136;-50
2022/10/18 05:48:31;;;;;;;18.55;6.67;;;;;;;7.82;79.65;102903.08;1905950;74;21060;-58
2022/10/18 05:51:01;;;;;;;17.17;6.00;;;;;;;7.88;79.75;102899.20;1942988;74;21107;-60
2022/10/18 05:53:30;;;;;;;18.70;6.85;;;;;;;7.97;79.74;102899.27;1946200;74;21471;-61
2022/10/18 05:56:02;;;;;;;20.23;6.35;;;;;;;8.04;79.72;102904.09;1913436;75;21483;-58
2022/10/18 05:58:31;;;;;;;31.23;10.48;;;;;;;8.08;79.70;102906.77;1913501;75;21040;-56
2022/10/18 06:01:01;;;;;;;39.78;13.72;;;;;;;8.14;79.64;102911.61;1915818;74;21040;-59
2022/10/18 06:03:30;;;;;;;45.85;14.07;;;;;;;8.20;79.65;102907.26;1913950;74;21041;-57
2022/10/18 06:06:04;;;;;;;24.12;9.75;;;;;;;8.27;79.67;102914.30;1913514;75;21056;-58
2022/10/18 06:08:32;;;;;;;;;;;;;;;8.36;79.66;102908.23;1916405;75;21106;-57
2022/10/18 06:11:03;;;;;;;20.55;7.17;;;;;;;8.43;79.83;102913.98;1914962;74;20142;-57
2022/10/18 06:13:31;;;;;;;32.75;8.83;;;;;;;8.45;79.76;102910.93;1932095;74;21040;-58
2022/10/18 06:16:02;;;;;;;52.35;16.25;;;;;;;8.53;79.71;102915.34;1947487;74;21106;-58
2022/10/18 06:18:31;;;;;;;47.15;14.58;;;;;;;8.62;79.60;102911.44;1947251;74;21052;-58
2022/10/18 06:21:00;;;;;;;51.33;16.10;;;;;;;8.71;79.59;102912.78;1945695;74;21032;-57
2022/10/18 06:23:29;;;;;;;52.75;17.52;;;;;;;8.79;79.53;102916.30;1938398;74;21126;-57
2022/10/18 06:26:21;;;;;;;37.78;13.43;;;;;;;8.82;79.54;102916.33;1941322;74;21151;-56
2022/10/18 06:28:51;;;;;;;41.70;13.88;;;;;;;8.82;79.57;102912.83;1962040;72;21023;-56
2022/10/18 06:31:20;;;;;;;34.70;12.35;;;;;;;8.86;79.56;102910.20;1952031;73;21051;-60
2022/10/18 06:33:49;;;;;;;33.28;10.82;;;;;;;8.91;79.56;102910.64;1952184;73;21097;-59
2022/10/18 06:36:25;;;;;;;28.32;9.28;;;;;;;8.91;79.62;102910.64;1983819;71;21128;-57
2022/10/18 06:38:51;;;;;;;27.17;8.18;;;;;;;8.91;79.60;102910.64;1963705;72;21466;-59
2022/10/18 06:41:19;;;;;;;31.25;9.45;;;;;;;8.86;79.73;102907.57;1987176;72;21082;-58
2022/10/18 06:43:52;;;;;;;26.40;9.68;;;;;;;8.91;79.74;102904.07;1987097;72;20999;-59
2022/10/18 06:46:21;;;;;;;30.88;10.63;;;;;;;8.94;79.93;102902.78;1987522;72;21027;-62
2022/10/18 06:48:50;;;;;;;23.15;8.28;;;;;;;8.97;79.99;102904.11;1984659;72;21031;-64
2022/10/18 06:51:20;;;;;;;26.68;9.48;;;;;;;9.03;80.03;102906.73;1987158;72;21052;-60
2022/10/18 06:53:49;;;;;;;48.68;12.45;;;;;;;9.08;79.94;102899.75;1987104;72;21044;-58
2022/10/18 06:56:18;;;;;;;33.10;11.75;;;;;;;9.13;79.93;102892.75;1987205;72;21000;-58
2022/10/18 06:58:46;;;;;;;28.57;10.03;;;;;;;9.22;79.88;102891.86;1985871;72;21086;-59
2022/10/18 07:01:17;;;;;;;26.93;10.65;;;;;;;9.29;79.98;102884.42;1986971;72;21004;-57
2022/10/18 07:03:47;;;;;;;25.32;9.30;;;;;;;9.41;79.90;102886.20;1987150;72;21035;-57
2022/10/18 07:06:18;;;;;;;30.40;10.55;;;;;;;9.49;79.88;102879.17;1987147;71;21097;-58
2022/10/18 07:08:48;;;;;;;52.78;15.25;;;;;;;9.54;79.92;102874.80;1987135;72;21032;-60
2022/10/18 07:11:19;;;;;;;38.55;13.13;;;;;;;9.62;79.85;102878.28;1984652;72;21498;-61
2022/10/18 07:13:48;;;;;;;41.83;12.68;;;;;;;9.74;79.76;102873.87;1963956;71;21019;-62
2022/10/18 07:16:18;;;;;;;33.45;13.43;;;;;;;9.79;79.78;102869.50;1952304;73;21078;-60
2022/10/18 07:18:50;;;;;;;33.18;11.97;;;;;;;9.83;79.73;102866.87;1952184;73;21030;-61
2022/10/18 07:21:21;;;;;;;35.38;11.90;;;;;;;9.88;79.84;102868.61;1954374;72;21007;-61
2022/10/18 07:23:50;;;;;;;34.90;13.08;;;;;;;9.86;79.90;102867.30;1952120;73;21093;-59
2022/10/18 07:26:25;;;;;;;41.95;14.50;;;;;;;9.90;79.82;102861.14;1952168;73;21548;-62
2022/10/18 07:28:59;;;;;;;27.22;9.70;;;;;;;9.96;79.84;102860.25;1952166;73;21114;-61
2022/10/18 07:31:28;;;;;;;27.93;10.10;;;;;;;10.01;79.91;102861.12;1973585;72;21035;-52
2022/10/18 07:33:57;;;;;;;35.52;11.22;;;;;;;10.05;79.86;102858.48;1987008;72;21510;-61
2022/10/18 07:36:26;;;;;;;57.55;17.10;;;;;;;10.08;79.90;102856.27;1981706;72;21019;-60
2022/10/18 07:38:55;;;;;;;39.95;14.68;;;;;;;10.15;79.86;102852.74;1983972;72;21026;-60
2022/10/18 07:41:25;;;;;;;55.33;16.05;;;;;;;10.23;79.93;102861.92;1987125;71;21172;-63
2022/10/18 07:43:54;;;;;;;30.68;11.05;;;;;;;10.29;79.81;102857.07;1987259;72;21051;-61
2022/10/18 07:46:23;;;;;;;43.75;13.93;;;;;;;10.37;79.83;102853.56;1987045;72;21000;-62
2022/10/18 07:48:52;;;;;;;44.05;14.63;;;;;;;10.41;79.78;102859.25;1979336;72;21039;-62
2022/10/18 07:51:22;;;;;;;42.83;14.80;;;;;;;10.43;79.78;102857.48;1954549;72;21039;-67
2022/10/18 07:53:54;;;;;;;35.15;12.73;;;;;;;10.46;79.77;102864.52;1952138;73;21466;-66
2022/10/18 07:56:23;;;;;;;29.12;10.28;;;;;;;10.49;79.71;102857.02;1952133;73;21027;-66
2022/10/18 07:58:53;;;;;;;26.15;10.72;;;;;;;10.49;79.81;102853.94;1952025;73;21053;-66
2022/10/18 08:01:24;;;;;;;33.88;11.63;;;;;;;10.49;79.81;102852.63;1963321;72;21100;-58
2022/10/18 08:03:54;;;;;;;34.10;12.90;;;;;;;10.56;79.77;102855.66;1950229;73;21595;-62
2022/10/18 08:06:24;;;;;;;34.27;10.90;;;;;;;10.65;79.78;102848.16;1952464;72;21078;-61
2022/10/18 08:08:52;;;;;;;37.30;13.53;;;;;;;10.76;79.77;102846.33;1952280;73;21039;-63
2022/10/18 08:11:23;;;;;;;37.73;12.53;;;;;;;10.84;79.77;102850.69;1952247;73;21125;-64
2022/10/18 08:13:53;;;;;;;25.80;11.03;;;;;;;10.88;79.70;102844.50;1976429;72;21039;-63
2022/10/18 08:16:28;;;;;;;23.22;9.83;;;;;;;10.92;79.69;102834.36;1960023;72;21015;-62
2022/10/18 08:18:58;;;;;;;19.70;6.72;;;;;;;11.03;79.62;102840.45;1952518;73;21093;-58
2022/10/18 08:21:27;;;;;;;18.73;7.85;;;;;;;11.10;79.54;102841.27;1952361;73;21092;-60
2022/10/18 08:23:56;;;;;;;20.75;6.92;;;;;;;11.12;79.53;102839.07;1952118;73;21059;-61
2022/10/18 08:26:25;;;;;;;16.37;6.83;;;;;;;11.14;79.50;102832.44;1954828;72;21086;-62
2022/10/18 08:28:53;;;;;;;14.95;6.15;;;;;;;11.17;79.55;102829.34;1952124;71;21079;-61
2022/10/18 08:31:22;;;;;;;15.43;6.15;;;;;;;11.27;79.55;102825.30;1952332;73;21129;-61
2022/10/18 08:33:51;;;;;;;13.85;6.37;;;;;;;11.37;79.47;102818.62;1952522;73;21039;-59
2022/10/18 08:36:20;;;;;;;13.60;5.92;;;;;;;11.43;79.45;102819.01;1954520;72;21050;-61
2022/10/18 08:38:49;;;;;;;15.72;6.17;;;;;;;11.52;79.41;102813.64;1952226;73;21098;-61
2022/10/18 08:41:39;;;;;;;14.25;5.53;;;;;;;11.63;79.36;102810.90;1954155;72;21000;-52
2022/10/18 08:44:22;;;;;;;15.45;6.25;;;;;;;11.67;79.29;102811.28;1952091;72;21093;-55
2022/10/18 08:46:56;;;;;;;19.07;7.47;;;;;;;11.76;79.21;102803.73;1963759;72;21059;-52
2022/10/18 08:49:46;;;;;;;15.40;6.75;;;;;;;11.83;79.02;102796.63;1955899;71;21128;-52
2022/10/18 08:52:37;;;;;;;45.83;16.73;;;;;;;11.94;78.89;102786.84;1977205;71;21588;-52
2022/10/18 08:55:11;;;;;;;37.40;16.17;;;;;;;12.06;78.81;102782.74;1982877;71;21047;-52
2022/10/18 08:57:40;;;;;;;22.87;9.58;;;;;;;12.14;78.67;102782.64;1985688;72;21094;-50
2022/10/18 09:00:17;;;;;;;70.32;26.07;;;;;;;12.28;78.53;102771.45;1985614;71;21036;-52
2022/10/18 09:02:51;;;;;;;22.05;8.48;;;;;;;12.36;78.47;102766.92;1993898;71;21113;-48
2022/10/18 09:05:31;;;;;;;31.42;12.45;;;;;;;12.33;78.16;102759.48;1998074;70;21064;-62
2022/10/18 09:08:18;;;;;;;24.55;12.43;;;;;;;12.33;78.19;102758.16;1964545;71;21512;-61
2022/10/18 09:11:23;;;;;;;23.60;10.98;;;;;;;12.40;78.16;102756.31;1961554;72;21136;-64
2022/10/18 09:14:14;;;;;;;32.38;11.22;;;;;;;12.48;78.09;102753.97;1975084;72;21450;-63
2022/10/18 09:17:08;;;;;;;33.15;12.82;;;;;;;12.50;77.95;102756.59;1964628;72;21105;-60
2022/10/18 09:19:43;;;;;;;;;;;;;;;12.48;77.94;102751.78;1966503;72;21174;-59
2022/10/18 09:22:17;;;;;;;22.32;9.50;;;;;;;12.50;77.80;102744.24;1976970;72;20173;-60
2022/10/18 09:24:58;;;;;;;30.40;13.40;;;;;;;12.45;77.53;102749.17;1986460;72;21079;-59
2022/10/18 09:27:32;;;;;;;21.23;9.13;;;;;;;12.46;77.61;102749.16;1987191;72;21032;-60
2022/10/18 09:30:07;;;;;;;16.62;7.40;;;;;;;12.43;77.73;102750.97;1988607;72;21132;-58
2022/10/18 09:32:47;;;;;;;18.73;7.80;;;;;;;12.44;77.73;102743.48;1988661;72;21470;-58
2022/10/18 09:35:27;;;;;;;18.85;8.55;;;;;;;12.48;77.73;102739.89;1961981;72;21086;-60
2022/10/18 09:38:04;;;;;;;15.00;7.60;;;;;;;12.52;77.62;102733.66;1969733;72;21510;-61
2022/10/18 09:40:36;;;;;;;20.15;8.48;;;;;;;12.60;77.50;102726.92;1979565;72;21490;-61
2022/10/18 09:43:27;;;;;;;41.48;14.58;;;;;;;12.71;77.29;102721.91;1989841;72;21454;-59
2022/10/18 09:45:56;;;;;;;18.20;8.30;;;;;;;12.82;77.19;102727.45;1963703;72;21070;-60
2022/10/18 09:48:42;;;;;;;13.62;6.95;;;;;;;12.85;77.01;102723.44;1954815;72;21589;-60
2022/10/18 09:51:16;;;;;;;16.12;7.95;;;;;;;12.86;76.93;102714.63;1968664;72;21345;-60
2022/10/18 09:53:50;;;;;;;15.88;6.83;;;;;;;12.86;76.86;102715.95;1969491;72;21051;-57
2022/10/18 09:56:22;;;;;;;13.32;6.97;;;;;;;12.91;76.84;102712.75;1965609;72;21105;-57
2022/10/18 09:58:50;;;;;;;25.52;8.70;;;;;;;13.02;76.64;102710.82;1966413;72;21101;-59
2022/10/18 10:01:26;;;;;;;19.40;7.70;;;;;;;13.08;76.51;102704.09;1969973;72;21232;-57
2022/10/18 10:03:55;;;;;;;15.68;8.58;;;;;;;13.19;76.39;102705.67;1978229;71;21079;-57
2022/10/18 10:06:29;;;;;;;16.15;7.70;;;;;;;13.29;76.15;102697.97;1986018;71;21158;-59
2022/10/18 10:09:07;;;;;;;12.90;6.45;;;;;;;13.46;75.97;102696.34;1984749;71;21578;-63
2022/10/18 10:11:45;;;;;;;18.02;7.35;;;;;;;13.67;75.67;102684.47;1959722;71;21086;-61
2022/10/18 10:14:18;;;;;;;15.98;6.53;;;;;;;13.87;75.26;102681.39;1984283;72;21007;-59
2022/10/18 10:16:58;;;;;;;29.52;11.55;;;;;;;14.03;74.76;102679.26;2010666;71;21063;-61
2022/10/18 10:19:32;;;;;;;12.95;5.05;;;;;;;14.23;74.23;102675.69;1966565;72;21105;-61
2022/10/18 10:22:07;;;;;;;13.75;6.22;;;;;;;14.58;73.63;102671.34;1989852;72;21063;-61
2022/10/18 10:24:48;;;;;;;10.32;5.03;;;;;;;14.84;72.80;102669.81;1987494;72;21035;-62
2022/10/18 10:27:31;;;;;;;10.60;4.53;;;;;;;15.33;71.58;102667.16;1979009;71;21142;-58
2022/10/18 10:30:04;;;;;;;12.78;5.45;;;;;;;15.96;70.28;102669.30;1985185;72;21055;-55
2022/10/18 10:32:48;;;;;;;9.08;4.78;;;;;;;16.55;67.84;102661.64;1987483;72;21004;-63
2022/10/18 10:35:30;;;;;;;14.70;4.05;;;;;;;17.79;65.46;102651.42;1966870;71;21140;-61
2022/10/18 10:37:56;;;;;;;9.10;4.83;;;;;;;18.41;63.30;102652.52;1951959;72;21039;-66
2022/10/18 10:40:34;;;;;;;11.63;4.95;;;;;;;18.43;62.28;102651.99;1913566;75;21008;-66
2022/10/18 10:43:18;;;;;;;8.33;4.15;;;;;;;18.19;61.25;102645.88;1942325;74;21027;-69
2022/10/18 10:46:05;;;;;;;7.55;3.87;;;;;;;18.64;61.16;102644.01;1951685;71;21081;-61
2022/10/18 10:48:52;;;;;;;8.83;4.65;;;;;;;19.15;60.38;102637.83;2012745;71;21535;-60
2022/10/18 10:51:37;;;;;;;9.30;4.95;;;;;;;19.39;59.01;102632.69;2012515;71;21035;-61
2022/10/18 10:54:11;;;;;;;15.45;6.83;;;;;;;19.62;58.82;102624.95;2012717;71;21055;-62
2022/10/18 10:56:56;;;;;;;15.93;6.47;;;;;;;20.16;58.48;102610.78;1997230;70;21011;-61
2022/10/18 10:59:28;;;;;;;13.43;6.35;;;;;;;20.87;57.66;102613.89;1976632;72;21044;-62
2022/10/18 11:02:17;;;;;;;14.33;7.22;;;;;;;21.18;57.05;102607.27;1976589;72;21027;-62
2022/10/18 11:04:51;;;;;;;11.55;6.55;;;;;;;20.87;57.60;102615.23;1967590;72;21115;-61
2022/10/18 11:07:37;;;;;;;14.63;6.40;;;;;;;20.80;57.91;102604.86;1966233;72;21067;-62
2022/10/18 11:10:12;;;;;;;12.37;6.78;;;;;;;21.01;57.72;102605.99;1924720;73;21528;-59
2022/10/18 11:13:04;;;;;;;13.18;5.72;;;;;;;21.30;57.16;102599.06;1948418;72;21458;-59
2022/10/18 11:15:41;;;;;;;14.23;6.45;;;;;;;21.41;57.04;102593.08;1889410;76;21006;-58
2022/10/18 11:18:28;;;;;;;14.68;7.08;;;;;;;21.11;56.92;102592.96;1882758;75;21006;-59
2022/10/18 11:20:59;;;;;;;16.00;6.80;;;;;;;21.06;57.06;102591.00;1880527;76;21094;-62
2022/10/18 11:23:31;;;;;;;12.60;6.20;;;;;;;21.32;56.84;102585.55;1880332;75;21203;-60
2022/10/18 11:26:15;;;;;;;6.87;4.03;;;;;;;21.19;56.93;102588.92;1900027;74;21117;-58
2022/10/18 11:28:55;;;;;;;4.37;3.05;;;;;;;20.91;56.50;102588.67;1880634;75;21062;-59
2022/10/18 11:31:42;;;;;;;4.53;2.65;;;;;;;20.34;56.05;102587.11;1905316;75;21116;-58
2022/10/18 11:34:46;;;;;;;6.22;2.60;;;;;;;19.83;56.45;102594.15;1874296;74;21562;-61
2022/10/18 11:37:30;;;;;;;9.23;3.15;;;;;;;19.29;56.81;102592.64;1849171;77;21066;-56
2022/10/18 11:40:02;;;;;;;4.92;2.72;;;;;;;18.70;57.85;102589.03;1849303;77;21038;-63
2022/10/18 11:42:33;;;;;;;5.10;2.62;;;;;;;18.02;59.12;102583.93;1848511;77;21509;-61
2022/10/18 11:45:23;;;;;;;7.70;4.03;;;;;;;17.47;60.37;102574.12;1849484;75;21513;-61
2022/10/18 11:48:28;;;;;;;8.90;4.42;;;;;;;17.07;61.33;102576.95;1850332;75;21042;-60
2022/10/18 11:51:14;;;;;;;7.33;3.52;;;;;;;16.73;62.17;102575.03;1875923;76;21074;-60
2022/10/18 11:54:04;;;;;;;7.30;3.45;;;;;;;16.44;62.90;102573.39;1873959;75;21136;-59